sensor_id;sensor_type;location;lat;lon;timestamp;P1;durP1;ratioP1;P2;durP2;ratioP2
74483;SDS011;62942;52.462;10.846;2023-06-14T00:00:50;2.1;;;4;;
74483;SDS011;62942;52.462;10.846;2023-06-14T00:02:00;2.3;;;6.3;;
74483;SDS011;62942;52.462;10.846;2023-06-14T00:03:00;2.1;;;4.1;;
74483;SDS011;62942;52.462;10.846;2023-06-14T00:04:10;2.1;;;4.9;;
74483;SDS011;62942;52.462;10.846;2023-06-14T00:05:10;2.3;;;3.9;;
74483;SDS011;62942;52.462;10.846;2023-06-14T00:06:20;2;;;3;;
74483;SDS011;62942;52.462;10.846;2023-06-14T00:07:21;2.1;;;3.6;;
74483;SDS011;62942;52.462;10.846;2023-06-14T00:08:20;2.1;;;4.9;;
74483;SDS011;62942;52.462;10.846;2023-06-14T00:09:30;2.2;;;4.2;;
74483;SDS011;62942;52.462;10.846;2023-06-14T00:10:40;2.2;;;6.1;;
74483;SDS011;62942;52.462;10.846;2023-06-14T00:11:40;2.3;;;5.5;;
74483;SDS011;62942;52.462;10.846;2023-06-14T00:12:50;2.3;;;3.7;;
74483;SDS011;62942;52.462;10.846;2023-06-14T00:13:50;2;;;3.9;;
74483;SDS011;62942;52.462;10.846;2023-06-14T00:15:00;2.3;;;5.1;;
74483;SDS011;62942;52.462;10.846;2023-06-14T00:16:10;2.1;;;3.5;;
74483;SDS011;62942;52.462;10.846;2023-06-14T00:17:10;2.1;;;4.8;;
74483;SDS011;62942;52.462;10.846;2023-06-14T00:18:20;2.2;;;4.1;;
74483;SDS011;62942;52.462;10.846;2023-06-14T00:19:20;2;;;3.9;;
74483;SDS011;62942;52.462;10.846;2023-06-14T00:20:30;2.1;;;5.9;;
74483;SDS011;62942;52.462;10.846;2023-06-14T00:21:30;2.1;;;4.1;;
74483;SDS011;62942;52.462;10.846;2023-06-14T00:22:40;2.2;;;4.3;;
74483;SDS011;62942;52.462;10.846;2023-06-14T00:23:50;2.3;;;4.8;;
74483;SDS011;62942;52.462;10.846;2023-06-14T00:25:00;2.1;;;3.8;;
74483;SDS011;62942;52.462;10.846;2023-06-14T00:26:10;2.3;;;3.9;;
74483;SDS011;62942;52.462;10.846;2023-06-14T00:27:10;2.2;;;3.8;;
74483;SDS011;62942;52.462;10.846;2023-06-14T00:28:20;2.1;;;5.3;;
74483;SDS011;62942;52.462;10.846;2023-06-14T00:29:30;2.1;;;3.9;;
74483;SDS011;62942;52.462;10.846;2023-06-14T00:30:30;2.1;;;3.8;;
74483;SDS011;62942;52.462;10.846;2023-06-14T00:31:40;2.2;;;4.7;;
74483;SDS011;62942;52.462;10.846;2023-06-14T00:32:40;2.2;;;3.3;;
74483;SDS011;62942;52.462;10.846;2023-06-14T00:33:50;2.5;;;4.7;;
74483;SDS011;62942;52.462;10.846;2023-06-14T00:35:00;2;;;3.2;;
74483;SDS011;62942;52.462;10.846;2023-06-14T00:36:10;2.2;;;4;;
74483;SDS011;62942;52.462;10.846;2023-06-14T00:37:20;2.2;;;4.6;;
74483;SDS011;62942;52.462;10.846;2023-06-14T00:38:30;2.2;;;4.9;;
74483;SDS011;62942;52.462;10.846;2023-06-14T00:39:40;2.2;;;4.6;;
74483;SDS011;62942;52.462;10.846;2023-06-14T00:40:50;2.2;;;4;;
74483;SDS011;62942;52.462;10.846;2023-06-14T00:41:50;2.2;;;4;;
74483;SDS011;62942;52.462;10.846;2023-06-14T00:43:00;2.2;;;6.1;;
74483;SDS011;62942;52.462;10.846;2023-06-14T00:44:00;2;;;4;;
74483;SDS011;62942;52.462;10.846;2023-06-14T00:45:10;2.1;;;3.5;;
74483;SDS011;62942;52.462;10.846;2023-06-14T00:46:10;2.1;;;4.9;;
74483;SDS011;62942;52.462;10.846;2023-06-14T00:47:20;2.2;;;4.3;;
74483;SDS011;62942;52.462;10.846;2023-06-14T00:48:20;2.2;;;4.3;;
74483;SDS011;62942;52.462;10.846;2023-06-14T00:49:30;2.3;;;4.9;;
74483;SDS011;62942;52.462;10.846;2023-06-14T00:50:40;2;;;3.8;;
74483;SDS011;62942;52.462;10.846;2023-06-14T00:51:40;2;;;4.4;;
74483;SDS011;62942;52.462;10.846;2023-06-14T00:52:50;2.1;;;4;;
74483;SDS011;62942;52.462;10.846;2023-06-14T00:53:50;2.2;;;4.8;;
74483;SDS011;62942;52.462;10.846;2023-06-14T00:55:00;2.1;;;4.8;;
74483;SDS011;62942;52.462;10.846;2023-06-14T00:56:00;2;;;3.5;;
74483;SDS011;62942;52.462;10.846;2023-06-14T00:57:10;2.1;;;3.5;;
74483;SDS011;62942;52.462;10.846;2023-06-14T00:58:10;2.2;;;4.2;;
74483;SDS011;62942;52.462;10.846;2023-06-14T00:59:20;2.1;;;5.1;;
74483;SDS011;62942;52.462;10.846;2023-06-14T01:00:20;2.3;;;3.7;;
74483;SDS011;62942;52.462;10.846;2023-06-14T01:01:30;2.2;;;4.7;;
74483;SDS011;62942;52.462;10.846;2023-06-14T01:02:30;2.1;;;3.9;;
74483;SDS011;62942;52.462;10.846;2023-06-14T01:03:40;2.1;;;5.1;;
74483;SDS011;62942;52.462;10.846;2023-06-14T01:04:40;2.1;;;3.5;;
74483;SDS011;62942;52.462;10.846;2023-06-14T01:05:50;2.1;;;4.1;;
74483;SDS011;62942;52.462;10.846;2023-06-14T01:07:02;2.3;;;5;;
74483;SDS011;62942;52.462;10.846;2023-06-14T01:08:13;2.2;;;3.7;;
74483;SDS011;62942;52.462;10.846;2023-06-14T01:09:15;2.1;;;3.7;;
74483;SDS011;62942;52.462;10.846;2023-06-14T01:10:23;2.3;;;7.6;;
74483;SDS011;62942;52.462;10.846;2023-06-14T01:11:22;2.2;;;4.4;;
74483;SDS011;62942;52.462;10.846;2023-06-14T01:12:31;2.2;;;5.6;;
74483;SDS011;62942;52.462;10.846;2023-06-14T01:13:32;2.1;;;3.9;;
74483;SDS011;62942;52.462;10.846;2023-06-14T01:14:30;2.1;;;5;;
74483;SDS011;62942;52.462;10.846;2023-06-14T01:15:40;2.3;;;3.4;;
74483;SDS011;62942;52.462;10.846;2023-06-14T01:16:50;2.4;;;6.9;;
74483;SDS011;62942;52.462;10.846;2023-06-14T01:18:00;2.2;;;3.8;;
74483;SDS011;62942;52.462;10.846;2023-06-14T01:19:00;2.3;;;4.6;;
74483;SDS011;62942;52.462;10.846;2023-06-14T01:20:10;2.3;;;3.3;;
74483;SDS011;62942;52.462;10.846;2023-06-14T01:21:19;2.1;;;3.8;;
74483;SDS011;62942;52.462;10.846;2023-06-14T01:22:20;2.2;;;3.9;;
74483;SDS011;62942;52.462;10.846;2023-06-14T01:23:20;2.2;;;3.6;;
74483;SDS011;62942;52.462;10.846;2023-06-14T01:24:20;2.3;;;3.9;;
74483;SDS011;62942;52.462;10.846;2023-06-14T01:25:30;2.1;;;4.2;;
74483;SDS011;62942;52.462;10.846;2023-06-14T01:26:30;2.2;;;5.4;;
74483;SDS011;62942;52.462;10.846;2023-06-14T01:27:40;2.2;;;3.9;;
74483;SDS011;62942;52.462;10.846;2023-06-14T01:28:40;2.3;;;4.7;;
74483;SDS011;62942;52.462;10.846;2023-06-14T01:29:50;2.2;;;3.9;;
74483;SDS011;62942;52.462;10.846;2023-06-14T01:31:00;2.3;;;4;;
74483;SDS011;62942;52.462;10.846;2023-06-14T01:32:00;2.2;;;3.7;;
74483;SDS011;62942;52.462;10.846;2023-06-14T01:33:10;2.2;;;4.1;;
74483;SDS011;62942;52.462;10.846;2023-06-14T01:34:20;2.4;;;4.7;;
74483;SDS011;62942;52.462;10.846;2023-06-14T01:35:20;2.2;;;4.5;;
74483;SDS011;62942;52.462;10.846;2023-06-14T01:36:30;2.4;;;4.6;;
74483;SDS011;62942;52.462;10.846;2023-06-14T01:37:40;2.4;;;5.1;;
74483;SDS011;62942;52.462;10.846;2023-06-14T01:38:50;2.2;;;4.3;;
74483;SDS011;62942;52.462;10.846;2023-06-14T01:40:00;2.3;;;5.1;;
74483;SDS011;62942;52.462;10.846;2023-06-14T01:41:00;2.2;;;5;;
74483;SDS011;62942;52.462;10.846;2023-06-14T01:42:10;2.2;;;4;;
74483;SDS011;62942;52.462;10.846;2023-06-14T01:43:20;2.4;;;4.6;;
74483;SDS011;62942;52.462;10.846;2023-06-14T01:44:20;2.4;;;4.7;;
74483;SDS011;62942;52.462;10.846;2023-06-14T01:45:20;2.2;;;3.5;;
74483;SDS011;62942;52.462;10.846;2023-06-14T01:46:30;2.2;;;4.3;;
74483;SDS011;62942;52.462;10.846;2023-06-14T01:47:40;2.3;;;4.4;;
74483;SDS011;62942;52.462;10.846;2023-06-14T01:48:40;2.3;;;3.4;;
74483;SDS011;62942;52.462;10.846;2023-06-14T01:49:50;2.2;;;4.1;;
74483;SDS011;62942;52.462;10.846;2023-06-14T01:50:50;2.4;;;4.5;;
74483;SDS011;62942;52.462;10.846;2023-06-14T01:52:00;2.5;;;5.1;;
74483;SDS011;62942;52.462;10.846;2023-06-14T01:53:10;2.3;;;4.5;;
74483;SDS011;62942;52.462;10.846;2023-06-14T01:54:20;2.3;;;3.8;;
74483;SDS011;62942;52.462;10.846;2023-06-14T01:55:29;2.3;;;5.4;;
74483;SDS011;62942;52.462;10.846;2023-06-14T01:56:30;2.3;;;4.8;;
74483;SDS011;62942;52.462;10.846;2023-06-14T01:57:30;2.4;;;5.4;;
74483;SDS011;62942;52.462;10.846;2023-06-14T01:58:40;2.2;;;4;;
74483;SDS011;62942;52.462;10.846;2023-06-14T01:59:40;2.2;;;5.1;;
74483;SDS011;62942;52.462;10.846;2023-06-14T02:00:40;2.2;;;4.4;;
74483;SDS011;62942;52.462;10.846;2023-06-14T02:01:50;2.2;;;4.1;;
74483;SDS011;62942;52.462;10.846;2023-06-14T02:02:50;2.6;;;5.2;;
74483;SDS011;62942;52.462;10.846;2023-06-14T02:03:50;2.2;;;4.7;;
74483;SDS011;62942;52.462;10.846;2023-06-14T02:05:00;2.4;;;4.8;;
74483;SDS011;62942;52.462;10.846;2023-06-14T02:06:10;2.3;;;4.6;;
74483;SDS011;62942;52.462;10.846;2023-06-14T02:07:10;2.4;;;4.4;;
74483;SDS011;62942;52.462;10.846;2023-06-14T02:08:10;2.4;;;4;;
74483;SDS011;62942;52.462;10.846;2023-06-14T02:09:20;2.5;;;4.4;;
74483;SDS011;62942;52.462;10.846;2023-06-14T02:10:30;2.4;;;3.9;;
74483;SDS011;62942;52.462;10.846;2023-06-14T02:11:40;2.3;;;6.4;;
74483;SDS011;62942;52.462;10.846;2023-06-14T02:12:50;2.3;;;4;;
74483;SDS011;62942;52.462;10.846;2023-06-14T02:13:59;2.3;;;4.5;;
74483;SDS011;62942;52.462;10.846;2023-06-14T02:14:59;2.3;;;4;;
74483;SDS011;62942;52.462;10.846;2023-06-14T02:16:00;2.3;;;4.7;;
74483;SDS011;62942;52.462;10.846;2023-06-14T02:17:10;2.3;;;4.8;;
74483;SDS011;62942;52.462;10.846;2023-06-14T02:18:20;2.4;;;4.4;;
74483;SDS011;62942;52.462;10.846;2023-06-14T02:19:29;2.3;;;4.5;;
74483;SDS011;62942;52.462;10.846;2023-06-14T02:20:30;2.2;;;6.1;;
74483;SDS011;62942;52.462;10.846;2023-06-14T02:21:30;2.2;;;5.3;;
74483;SDS011;62942;52.462;10.846;2023-06-14T02:22:40;2.3;;;6.7;;
74483;SDS011;62942;52.462;10.846;2023-06-14T02:23:50;2.4;;;4.3;;
74483;SDS011;62942;52.462;10.846;2023-06-14T02:25:00;2.4;;;3.9;;
74483;SDS011;62942;52.462;10.846;2023-06-14T02:26:10;2.3;;;3.7;;
74483;SDS011;62942;52.462;10.846;2023-06-14T02:27:19;2.2;;;4.2;;
74483;SDS011;62942;52.462;10.846;2023-06-14T02:28:19;2.4;;;3.9;;
74483;SDS011;62942;52.462;10.846;2023-06-14T02:29:29;2.3;;;3.4;;
74483;SDS011;62942;52.462;10.846;2023-06-14T02:30:39;2.4;;;5;;
74483;SDS011;62942;52.462;10.846;2023-06-14T02:31:49;2.3;;;3.8;;
74483;SDS011;62942;52.462;10.846;2023-06-14T02:32:49;2.5;;;6;;
74483;SDS011;62942;52.462;10.846;2023-06-14T02:33:49;2.3;;;5.9;;
74483;SDS011;62942;52.462;10.846;2023-06-14T02:34:59;2.4;;;5.5;;
74483;SDS011;62942;52.462;10.846;2023-06-14T02:36:00;2.5;;;4;;
74483;SDS011;62942;52.462;10.846;2023-06-14T02:36:59;2.4;;;4;;
74483;SDS011;62942;52.462;10.846;2023-06-14T02:38:09;2.4;;;4.9;;
74483;SDS011;62942;52.462;10.846;2023-06-14T02:39:19;2.4;;;5.6;;
74483;SDS011;62942;52.462;10.846;2023-06-14T02:40:29;2.5;;;4.3;;
74483;SDS011;62942;52.462;10.846;2023-06-14T02:41:39;2.4;;;4;;
74483;SDS011;62942;52.462;10.846;2023-06-14T02:42:39;2.4;;;4.8;;
74483;SDS011;62942;52.462;10.846;2023-06-14T02:43:39;2.5;;;6.5;;
74483;SDS011;62942;52.462;10.846;2023-06-14T02:44:49;2.5;;;4.2;;
74483;SDS011;62942;52.462;10.846;2023-06-14T02:45:59;2.4;;;5.3;;
74483;SDS011;62942;52.462;10.846;2023-06-14T02:47:09;2.4;;;3.8;;
74483;SDS011;62942;52.462;10.846;2023-06-14T02:48:09;2.4;;;5;;
74483;SDS011;62942;52.462;10.846;2023-06-14T02:49:09;2.5;;;6.3;;
74483;SDS011;62942;52.462;10.846;2023-06-14T02:50:20;2.3;;;4.8;;
74483;SDS011;62942;52.462;10.846;2023-06-14T02:51:29;2.5;;;4.6;;
74483;SDS011;62942;52.462;10.846;2023-06-14T02:52:29;2.3;;;4.7;;
74483;SDS011;62942;52.462;10.846;2023-06-14T02:53:39;2.3;;;4.2;;
74483;SDS011;62942;52.462;10.846;2023-06-14T02:54:39;2.5;;;4.1;;
74483;SDS011;62942;52.462;10.846;2023-06-14T02:55:50;2.4;;;6.1;;
74483;SDS011;62942;52.462;10.846;2023-06-14T02:57:00;2.3;;;3.6;;
74483;SDS011;62942;52.462;10.846;2023-06-14T02:58:09;2.5;;;4.8;;
74483;SDS011;62942;52.462;10.846;2023-06-14T02:59:20;2.4;;;4;;
74483;SDS011;62942;52.462;10.846;2023-06-14T03:00:29;2.5;;;5.6;;
74483;SDS011;62942;52.462;10.846;2023-06-14T03:01:40;2.6;;;4.3;;
74483;SDS011;62942;52.462;10.846;2023-06-14T03:02:49;2.5;;;3.8;;
74483;SDS011;62942;52.462;10.846;2023-06-14T03:03:49;2.7;;;4.9;;
74483;SDS011;62942;52.462;10.846;2023-06-14T03:04:49;2.9;;;6;;
74483;SDS011;62942;52.462;10.846;2023-06-14T03:05:59;2.8;;;5.2;;
74483;SDS011;62942;52.462;10.846;2023-06-14T03:07:09;2.4;;;3.5;;
74483;SDS011;62942;52.462;10.846;2023-06-14T03:08:19;2.5;;;4.7;;
74483;SDS011;62942;52.462;10.846;2023-06-14T03:09:19;2.8;;;4.3;;
74483;SDS011;62942;52.462;10.846;2023-06-14T03:10:29;2.4;;;4.7;;
74483;SDS011;62942;52.462;10.846;2023-06-14T03:11:30;2.5;;;4.6;;
74483;SDS011;62942;52.462;10.846;2023-06-14T03:12:29;2.4;;;3.9;;
74483;SDS011;62942;52.462;10.846;2023-06-14T03:13:39;2.5;;;7.4;;
74483;SDS011;62942;52.462;10.846;2023-06-14T03:14:39;2.5;;;4.9;;
74483;SDS011;62942;52.462;10.846;2023-06-14T03:15:49;2.5;;;3.6;;
74483;SDS011;62942;52.462;10.846;2023-06-14T03:16:59;2.6;;;5.1;;
74483;SDS011;62942;52.462;10.846;2023-06-14T03:18:09;2.5;;;5.9;;
74483;SDS011;62942;52.462;10.846;2023-06-14T03:19:19;2.6;;;4;;
74483;SDS011;62942;52.462;10.846;2023-06-14T03:20:29;2.5;;;4.6;;
74483;SDS011;62942;52.462;10.846;2023-06-14T03:21:39;2.5;;;6.6;;
74483;SDS011;62942;52.462;10.846;2023-06-14T03:22:49;2.5;;;4.3;;
74483;SDS011;62942;52.462;10.846;2023-06-14T03:23:59;2.4;;;5.3;;
74483;SDS011;62942;52.462;10.846;2023-06-14T03:24:59;2.5;;;4.7;;
74483;SDS011;62942;52.462;10.846;2023-06-14T03:26:09;2.6;;;5.1;;
74483;SDS011;62942;52.462;10.846;2023-06-14T03:27:19;2.5;;;6.6;;
74483;SDS011;62942;52.462;10.846;2023-06-14T03:28:29;2.5;;;4.5;;
74483;SDS011;62942;52.462;10.846;2023-06-14T03:29:29;2.7;;;5.1;;
74483;SDS011;62942;52.462;10.846;2023-06-14T03:30:39;2.4;;;4.1;;
74483;SDS011;62942;52.462;10.846;2023-06-14T03:31:42;2.4;;;4.9;;
74483;SDS011;62942;52.462;10.846;2023-06-14T03:32:39;2.6;;;4.5;;
74483;SDS011;62942;52.462;10.846;2023-06-14T03:33:49;2.4;;;5.2;;
74483;SDS011;62942;52.462;10.846;2023-06-14T03:34:49;2.4;;;5.2;;
74483;SDS011;62942;52.462;10.846;2023-06-14T03:35:49;2.5;;;4.6;;
74483;SDS011;62942;52.462;10.846;2023-06-14T03:36:59;2.5;;;5.7;;
74483;SDS011;62942;52.462;10.846;2023-06-14T03:38:09;2.3;;;3.5;;
74483;SDS011;62942;52.462;10.846;2023-06-14T03:39:19;2.7;;;4.7;;
74483;SDS011;62942;52.462;10.846;2023-06-14T03:40:20;2.5;;;4.8;;
74483;SDS011;62942;52.462;10.846;2023-06-14T03:41:29;2.5;;;3.9;;
74483;SDS011;62942;52.462;10.846;2023-06-14T03:42:39;2.5;;;4.7;;
74483;SDS011;62942;52.462;10.846;2023-06-14T03:43:39;2.5;;;5;;
74483;SDS011;62942;52.462;10.846;2023-06-14T03:44:39;2.6;;;5.3;;
74483;SDS011;62942;52.462;10.846;2023-06-14T03:45:49;2.5;;;4.7;;
74483;SDS011;62942;52.462;10.846;2023-06-14T03:46:49;2.6;;;5;;
74483;SDS011;62942;52.462;10.846;2023-06-14T03:47:59;2.7;;;4.8;;
74483;SDS011;62942;52.462;10.846;2023-06-14T03:49:09;2.8;;;6;;
74483;SDS011;62942;52.462;10.846;2023-06-14T03:50:10;2.3;;;3.3;;
74483;SDS011;62942;52.462;10.846;2023-06-14T03:51:09;2.5;;;4.1;;
74483;SDS011;62942;52.462;10.846;2023-06-14T03:52:19;2.5;;;4.2;;
74483;SDS011;62942;52.462;10.846;2023-06-14T03:53:29;2.5;;;4.7;;
74483;SDS011;62942;52.462;10.846;2023-06-14T03:54:29;2.6;;;5;;
74483;SDS011;62942;52.462;10.846;2023-06-14T03:55:29;2.6;;;4.9;;
74483;SDS011;62942;52.462;10.846;2023-06-14T03:56:39;2.6;;;4.3;;
74483;SDS011;62942;52.462;10.846;2023-06-14T03:57:39;2.7;;;4.9;;
74483;SDS011;62942;52.462;10.846;2023-06-14T03:58:49;2.6;;;5.8;;
74483;SDS011;62942;52.462;10.846;2023-06-14T03:59:59;2.4;;;4.7;;
74483;SDS011;62942;52.462;10.846;2023-06-14T04:01:09;2.5;;;4.9;;
74483;SDS011;62942;52.462;10.846;2023-06-14T04:02:19;2.6;;;4.2;;
74483;SDS011;62942;52.462;10.846;2023-06-14T04:03:29;2.4;;;3.7;;
74483;SDS011;62942;52.462;10.846;2023-06-14T04:04:39;2.4;;;4.9;;
74483;SDS011;62942;52.462;10.846;2023-06-14T04:05:49;2.7;;;4.5;;
74483;SDS011;62942;52.462;10.846;2023-06-14T04:06:49;2.7;;;4.6;;
74483;SDS011;62942;52.462;10.846;2023-06-14T04:07:59;2.6;;;4.8;;
74483;SDS011;62942;52.462;10.846;2023-06-14T04:08:59;2.6;;;4.9;;
74483;SDS011;62942;52.462;10.846;2023-06-14T04:10:09;2.4;;;5.1;;
74483;SDS011;62942;52.462;10.846;2023-06-14T04:11:09;2.7;;;5.1;;
74483;SDS011;62942;52.462;10.846;2023-06-14T04:12:19;2.5;;;4.3;;
74483;SDS011;62942;52.462;10.846;2023-06-14T04:13:29;2.4;;;4.3;;
74483;SDS011;62942;52.462;10.846;2023-06-14T04:14:39;2.5;;;4.5;;
74483;SDS011;62942;52.462;10.846;2023-06-14T04:15:49;2.5;;;3.8;;
74483;SDS011;62942;52.462;10.846;2023-06-14T04:16:49;2.5;;;5.5;;
74483;SDS011;62942;52.462;10.846;2023-06-14T04:17:59;2.7;;;4.8;;
74483;SDS011;62942;52.462;10.846;2023-06-14T04:19:00;2.6;;;6.2;;
74483;SDS011;62942;52.462;10.846;2023-06-14T04:20:09;2.5;;;4.8;;
74483;SDS011;62942;52.462;10.846;2023-06-14T04:21:20;2.6;;;3.8;;
74483;SDS011;62942;52.462;10.846;2023-06-14T04:22:29;2.5;;;4.6;;
74483;SDS011;62942;52.462;10.846;2023-06-14T04:23:39;2.5;;;3.9;;
74483;SDS011;62942;52.462;10.846;2023-06-14T04:24:49;2.5;;;4.8;;
74483;SDS011;62942;52.462;10.846;2023-06-14T04:25:49;2.7;;;4.7;;
74483;SDS011;62942;52.462;10.846;2023-06-14T04:26:59;2.4;;;3.9;;
74483;SDS011;62942;52.462;10.846;2023-06-14T04:28:09;2.6;;;5.2;;
74483;SDS011;62942;52.462;10.846;2023-06-14T04:29:09;2.5;;;4.1;;
74483;SDS011;62942;52.462;10.846;2023-06-14T04:30:10;2.5;;;4;;
74483;SDS011;62942;52.462;10.846;2023-06-14T04:31:19;2.5;;;5.4;;
74483;SDS011;62942;52.462;10.846;2023-06-14T04:32:29;2.6;;;4.3;;
74483;SDS011;62942;52.462;10.846;2023-06-14T04:33:39;2.5;;;4.6;;
74483;SDS011;62942;52.462;10.846;2023-06-14T04:34:49;2.6;;;4.1;;
74483;SDS011;62942;52.462;10.846;2023-06-14T04:35:59;2.5;;;5.8;;
74483;SDS011;62942;52.462;10.846;2023-06-14T04:37:09;2.7;;;4.3;;
74483;SDS011;62942;52.462;10.846;2023-06-14T04:38:19;2.6;;;4.4;;
74483;SDS011;62942;52.462;10.846;2023-06-14T04:39:29;2.7;;;5;;
74483;SDS011;62942;52.462;10.846;2023-06-14T04:40:29;2.6;;;4.6;;
74483;SDS011;62942;52.462;10.846;2023-06-14T04:41:39;2.5;;;4.1;;
74483;SDS011;62942;52.462;10.846;2023-06-14T04:42:49;2.5;;;4;;
74483;SDS011;62942;52.462;10.846;2023-06-14T04:43:49;2.5;;;4.6;;
74483;SDS011;62942;52.462;10.846;2023-06-14T04:44:49;2.6;;;4.7;;
74483;SDS011;62942;52.462;10.846;2023-06-14T04:45:59;2.6;;;4.2;;
74483;SDS011;62942;52.462;10.846;2023-06-14T04:46:59;2.5;;;4.4;;
74483;SDS011;62942;52.462;10.846;2023-06-14T04:47:59;2.6;;;4.7;;
74483;SDS011;62942;52.462;10.846;2023-06-14T04:49:09;2.4;;;5.3;;
74483;SDS011;62942;52.462;10.846;2023-06-14T04:50:09;2.3;;;5.5;;
74483;SDS011;62942;52.462;10.846;2023-06-14T04:51:09;2.6;;;4.8;;
74483;SDS011;62942;52.462;10.846;2023-06-14T04:52:19;2.5;;;4.4;;
74483;SDS011;62942;52.462;10.846;2023-06-14T04:53:19;2.7;;;4.8;;
74483;SDS011;62942;52.462;10.846;2023-06-14T04:54:19;2.6;;;5.3;;
74483;SDS011;62942;52.462;10.846;2023-06-14T04:55:29;2.6;;;4.8;;
74483;SDS011;62942;52.462;10.846;2023-06-14T04:56:29;2.7;;;4.6;;
74483;SDS011;62942;52.462;10.846;2023-06-14T04:57:39;2.7;;;5.1;;
74483;SDS011;62942;52.462;10.846;2023-06-14T04:58:49;2.8;;;5.2;;
74483;SDS011;62942;52.462;10.846;2023-06-14T04:59:59;2.7;;;6.7;;
74483;SDS011;62942;52.462;10.846;2023-06-14T05:00:59;2.7;;;4;;
74483;SDS011;62942;52.462;10.846;2023-06-14T05:02:09;2.8;;;5.4;;
74483;SDS011;62942;52.462;10.846;2023-06-14T05:03:09;2.5;;;4;;
74483;SDS011;62942;52.462;10.846;2023-06-14T05:04:19;2.4;;;4;;
74483;SDS011;62942;52.462;10.846;2023-06-14T05:05:29;2.7;;;5.5;;
74483;SDS011;62942;52.462;10.846;2023-06-14T05:06:29;2.7;;;5.5;;
74483;SDS011;62942;52.462;10.846;2023-06-14T05:07:39;2.5;;;4.4;;
74483;SDS011;62942;52.462;10.846;2023-06-14T05:08:49;2.7;;;4.5;;
74483;SDS011;62942;52.462;10.846;2023-06-14T05:09:49;2.9;;;4;;
74483;SDS011;62942;52.462;10.846;2023-06-14T05:10:59;2.6;;;3.6;;
74483;SDS011;62942;52.462;10.846;2023-06-14T05:11:59;2.7;;;6.4;;
74483;SDS011;62942;52.462;10.846;2023-06-14T05:13:09;2.7;;;4.3;;
74483;SDS011;62942;52.462;10.846;2023-06-14T05:14:19;2.7;;;5.2;;
74483;SDS011;62942;52.462;10.846;2023-06-14T05:15:19;3;;;6.4;;
74483;SDS011;62942;52.462;10.846;2023-06-14T05:16:29;2.7;;;4.1;;
74483;SDS011;62942;52.462;10.846;2023-06-14T05:17:29;3;;;5.7;;
74483;SDS011;62942;52.462;10.846;2023-06-14T05:18:39;2.7;;;4.1;;
74483;SDS011;62942;52.462;10.846;2023-06-14T05:19:49;2.7;;;4.9;;
74483;SDS011;62942;52.462;10.846;2023-06-14T05:20:49;2.7;;;3.9;;
74483;SDS011;62942;52.462;10.846;2023-06-14T05:21:59;2.7;;;4.3;;
74483;SDS011;62942;52.462;10.846;2023-06-14T05:22:59;2.9;;;5.4;;
74483;SDS011;62942;52.462;10.846;2023-06-14T05:24:09;3;;;5.3;;
74483;SDS011;62942;52.462;10.846;2023-06-14T05:25:19;2.7;;;5.1;;
74483;SDS011;62942;52.462;10.846;2023-06-14T05:26:19;2.9;;;5.8;;
74483;SDS011;62942;52.462;10.846;2023-06-14T05:27:29;2.8;;;5.5;;
74483;SDS011;62942;52.462;10.846;2023-06-14T05:28:39;2.9;;;4.6;;
74483;SDS011;62942;52.462;10.846;2023-06-14T05:29:39;2.5;;;5.4;;
74483;SDS011;62942;52.462;10.846;2023-06-14T05:30:49;2.6;;;5.8;;
74483;SDS011;62942;52.462;10.846;2023-06-14T05:31:59;2.6;;;5.7;;
74483;SDS011;62942;52.462;10.846;2023-06-14T05:33:09;2.6;;;5;;
74483;SDS011;62942;52.462;10.846;2023-06-14T05:34:09;2.6;;;4.2;;
74483;SDS011;62942;52.462;10.846;2023-06-14T05:35:19;2.7;;;5.6;;
74483;SDS011;62942;52.462;10.846;2023-06-14T05:36:19;2.5;;;4.3;;
74483;SDS011;62942;52.462;10.846;2023-06-14T05:37:29;2.5;;;4.9;;
74483;SDS011;62942;52.462;10.846;2023-06-14T05:38:39;2.5;;;4.1;;
74483;SDS011;62942;52.462;10.846;2023-06-14T05:39:49;2.6;;;4.5;;
74483;SDS011;62942;52.462;10.846;2023-06-14T05:40:59;2.5;;;4.6;;
74483;SDS011;62942;52.462;10.846;2023-06-14T05:41:59;2.4;;;5;;
74483;SDS011;62942;52.462;10.846;2023-06-14T05:42:59;2.6;;;3.9;;
74483;SDS011;62942;52.462;10.846;2023-06-14T05:44:09;2.8;;;5.6;;
74483;SDS011;62942;52.462;10.846;2023-06-14T05:45:09;2.6;;;4.4;;
74483;SDS011;62942;52.462;10.846;2023-06-14T05:46:09;2.6;;;5.4;;
74483;SDS011;62942;52.462;10.846;2023-06-14T05:47:19;2.5;;;4.2;;
74483;SDS011;62942;52.462;10.846;2023-06-14T05:48:19;2.8;;;5.7;;
74483;SDS011;62942;52.462;10.846;2023-06-14T05:49:29;2.7;;;5.2;;
74483;SDS011;62942;52.462;10.846;2023-06-14T05:50:39;2.7;;;4.4;;
74483;SDS011;62942;52.462;10.846;2023-06-14T05:51:39;2.7;;;5;;
74483;SDS011;62942;52.462;10.846;2023-06-14T05:52:49;2.7;;;6.1;;
74483;SDS011;62942;52.462;10.846;2023-06-14T05:53:59;2.5;;;4.3;;
74483;SDS011;62942;52.462;10.846;2023-06-14T05:54:59;2.7;;;4.4;;
74483;SDS011;62942;52.462;10.846;2023-06-14T05:56:09;2.7;;;4.8;;
74483;SDS011;62942;52.462;10.846;2023-06-14T05:57:10;2.5;;;3.5;;
74483;SDS011;62942;52.462;10.846;2023-06-14T05:58:19;2.8;;;5.7;;
74483;SDS011;62942;52.462;10.846;2023-06-14T05:59:19;2.6;;;3.3;;
74483;SDS011;62942;52.462;10.846;2023-06-14T06:00:29;2.7;;;6.2;;
74483;SDS011;62942;52.462;10.846;2023-06-14T06:01:39;2.7;;;4.6;;
74483;SDS011;62942;52.462;10.846;2023-06-14T06:02:49;2.8;;;4.5;;
74483;SDS011;62942;52.462;10.846;2023-06-14T06:03:59;2.6;;;4.2;;
74483;SDS011;62942;52.462;10.846;2023-06-14T06:05:09;2.7;;;3.8;;
74483;SDS011;62942;52.462;10.846;2023-06-14T06:06:19;2.9;;;6.1;;
74483;SDS011;62942;52.462;10.846;2023-06-14T06:07:19;2.7;;;4.5;;
74483;SDS011;62942;52.462;10.846;2023-06-14T06:08:29;2.8;;;5;;
74483;SDS011;62942;52.462;10.846;2023-06-14T06:09:39;2.5;;;4.6;;
74483;SDS011;62942;52.462;10.846;2023-06-14T06:10:39;2.8;;;4.1;;
74483;SDS011;62942;52.462;10.846;2023-06-14T06:11:49;2.8;;;4;;
74483;SDS011;62942;52.462;10.846;2023-06-14T06:12:49;2.8;;;4.9;;
74483;SDS011;62942;52.462;10.846;2023-06-14T06:13:59;2.7;;;4.1;;
74483;SDS011;62942;52.462;10.846;2023-06-14T06:15:09;2.8;;;5.4;;
74483;SDS011;62942;52.462;10.846;2023-06-14T06:16:09;2.6;;;4.9;;
74483;SDS011;62942;52.462;10.846;2023-06-14T06:17:19;2.6;;;4.3;;
74483;SDS011;62942;52.462;10.846;2023-06-14T06:18:19;2.8;;;5;;
74483;SDS011;62942;52.462;10.846;2023-06-14T06:19:29;2.9;;;4;;
74483;SDS011;62942;52.462;10.846;2023-06-14T06:20:39;2.8;;;5.7;;
74483;SDS011;62942;52.462;10.846;2023-06-14T06:21:49;2.9;;;4.7;;
74483;SDS011;62942;52.462;10.846;2023-06-14T06:22:59;2.9;;;5.6;;
74483;SDS011;62942;52.462;10.846;2023-06-14T06:23:59;2.7;;;4.7;;
74483;SDS011;62942;52.462;10.846;2023-06-14T06:25:09;2.9;;;4.5;;
74483;SDS011;62942;52.462;10.846;2023-06-14T06:26:19;2.6;;;4.2;;
74483;SDS011;62942;52.462;10.846;2023-06-14T06:27:29;3;;;4.9;;
74483;SDS011;62942;52.462;10.846;2023-06-14T06:28:29;2.7;;;4.2;;
74483;SDS011;62942;52.462;10.846;2023-06-14T06:29:29;2.8;;;5.5;;
74483;SDS011;62942;52.462;10.846;2023-06-14T06:30:39;2.7;;;5.1;;
74483;SDS011;62942;52.462;10.846;2023-06-14T06:31:49;2.6;;;4.4;;
74483;SDS011;62942;52.462;10.846;2023-06-14T06:32:49;2.8;;;5;;
74483;SDS011;62942;52.462;10.846;2023-06-14T06:33:49;2.8;;;4;;
74483;SDS011;62942;52.462;10.846;2023-06-14T06:34:59;2.7;;;4.1;;
74483;SDS011;62942;52.462;10.846;2023-06-14T06:36:09;2.6;;;4.2;;
74483;SDS011;62942;52.462;10.846;2023-06-14T06:37:09;2.7;;;4.6;;
74483;SDS011;62942;52.462;10.846;2023-06-14T06:38:19;3;;;5.3;;
74483;SDS011;62942;52.462;10.846;2023-06-14T06:39:29;2.8;;;4.8;;
74483;SDS011;62942;52.462;10.846;2023-06-14T06:40:29;2.9;;;4.6;;
74483;SDS011;62942;52.462;10.846;2023-06-14T06:41:29;2.7;;;4.7;;
74483;SDS011;62942;52.462;10.846;2023-06-14T06:42:39;2.8;;;4.5;;
74483;SDS011;62942;52.462;10.846;2023-06-14T06:43:49;2.8;;;4;;
74483;SDS011;62942;52.462;10.846;2023-06-14T06:44:59;2.7;;;4.8;;
74483;SDS011;62942;52.462;10.846;2023-06-14T06:46:09;2.7;;;4.4;;
74483;SDS011;62942;52.462;10.846;2023-06-14T06:47:09;2.9;;;4.9;;